Main page
METAR-TAF:

METAR-TAF

Airports :

Islay Airport

Islay, Scotland

latitude: 55-40-55N, longitude: 006-15-24W, elevation: 16 m

Current weather observation

The report was made 17 minutes ago, at 04:20 UTC
Wind 6 kt from the West, varying between West/Southwest and West/Northwest
Temperature 14°C
Humidity 100%
Pressure 1014 hPa
Visibility: 0150 m

METAR: EGPI 220420Z AUTO 26006KT 240V300 0150 // VV/// 14/14 Q1014

Time: 05:37 (04:37 UTC)

Forecast

The report was made 2 hours and 34 minutes ago, at 02:03 UTC
Forecast valid from 22 at 03 UTC to 22 at 12 UTC
Wind 9 kt from the West/Southwest
Visibility: 2000 m
Overcast at a height of 200 ft
light drizzle, mist
Temporary
from 22 at 03 UTC to 22 at 12 UTC
Visibility: 0100 m
fog

TAF: EGPI 220203Z 2203/2212 24009KT 2000 -DZ BR OVC002 TEMPO 2203/2212 0100 FG VV///

Weather observations and forecasts of more than 4000 airports (METAR and TAF reports).

The available stations are represented by yellow and red dots on the map.

Hover mouse over dot to see the name of the station.

Then click to see weather observations and forecasts.

To change the map : click on the green buttons with a black cross to zoom in, on the green button with a dash to zoom out, or on the green arrows for adjacent maps.


METAR-TAF: